Portada
METAR-TAF:

METAR-TAF

Aeroports :

Ivalo, Finlàndia

latitud: 68-37N, longitud: 027-25E, altitud: 147 m

Observació

L'informe es va fer fa 25 minuts, a les 19:50 UTC
Vent 2 kt amb direcció variable
Temperatura 7°C
Humitat 87%
Pressió 1025 hPa
Visibilitat 10 km o més
Escasses núvols a una alçada de 2600 ft
Cel ennuvolat a una alçada de 5200 ft

METAR: EFIV 241950Z AUTO VRB02KT 9999 FEW026 BKN052 07/05 Q1025

Hora: 23:15 (20:15 UTC)

Pronòstic

L'informe es va fer fa 11 hores i 40 minuts, a les 08:35 UTC
Pronòstic vàlid del 24 a les 09 UTC al 24 a les 11 UTC
Vent 7 kt del Nord/Nord-Est
Visibilitat 10 km o més
Cel ennuvolat a una alçada de 800 ft
Evolucionant progressivament
l' 24 a les 09 UTC al 24 a les 11 UTC
Cel ennuvolat a una alçada de 1500 ft

TAF: EFIV 240835Z 2409/2411 03007KT 9999 BKN008 BECMG 2409/2411 BKN015

Observacions i pronòstics meteorològics de més de 4000 aeroports (METAR i TAF).

Les estacions disponibles són els punts grocs i vermells al mapa.

Posi el ratolí al punt desitjat per veure el nom de l'estació.

Feu clic per veure les observacions i els pronòstics meteorològics.

Per canviar el mapa: feu clic els botons verds amb una creu de color negre per apropar; al botó verd amb un guió per allunyar la imatge; o en les fletxes verdes per a mapes adjacents.


METAR-TAF: